createdAt,value
2019-04-04T00:01:02.169Z,5.50
2019-04-04T00:03:31.625Z,5.55
2019-04-04T00:06:00.942Z,5.57
2019-04-04T00:08:31.636Z,5.57
2019-04-04T00:10:59.830Z,5.61
2019-04-04T00:13:29.311Z,5.59
2019-04-04T00:15:58.667Z,5.61
2019-04-04T00:18:28.419Z,5.63
2019-04-04T00:20:57.713Z,5.62
2019-04-04T00:23:27.029Z,5.63
2019-04-04T00:26:17.899Z,5.61
2019-04-04T00:28:47.235Z,5.57
2019-04-04T00:31:18.906Z,5.55
2019-04-04T00:33:45.867Z,5.56
2019-04-04T00:36:15.723Z,5.56
2019-04-04T00:38:45.021Z,5.61
2019-04-04T00:41:14.614Z,5.56
2019-04-04T00:43:46.022Z,5.50
2019-04-04T00:46:15.402Z,5.45
2019-04-04T00:48:44.712Z,5.46
2019-04-04T00:51:13.952Z,5.42
2019-04-04T00:53:43.599Z,5.38
2019-04-04T00:56:12.528Z,5.36
2019-04-04T00:58:41.967Z,5.34
2019-04-04T01:01:11.282Z,5.33
2019-04-04T01:03:40.576Z,5.34
2019-04-04T01:06:09.983Z,5.32
2019-04-04T01:08:39.314Z,5.29
2019-04-04T01:11:08.569Z,5.28
2019-04-04T01:13:37.858Z,5.29
2019-04-04T01:16:07.135Z,5.29
2019-04-04T01:18:37.455Z,5.29
2019-04-04T01:21:05.635Z,5.27
2019-04-04T01:23:34.911Z,5.28
2019-04-04T01:26:04.214Z,5.29
2019-04-04T01:28:33.521Z,5.32
2019-04-04T01:31:02.854Z,5.29
2019-04-04T01:33:32.120Z,5.27
2019-04-04T01:36:01.365Z,5.27
2019-04-04T01:38:30.605Z,5.25
2019-04-04T01:40:59.843Z,5.25
2019-04-04T01:43:29.077Z,5.21
2019-04-04T01:45:58.319Z,5.21
2019-04-04T01:48:27.619Z,5.23
2019-04-04T01:50:56.859Z,5.26
2019-04-04T01:53:26.132Z,5.29
2019-04-04T01:55:55.439Z,5.30
2019-04-04T01:58:24.681Z,5.33
2019-04-04T02:00:53.932Z,5.33
2019-04-04T02:03:23.394Z,5.36
2019-04-04T02:05:52.370Z,5.39
2019-04-04T02:08:21.625Z,5.41
2019-04-04T02:10:50.891Z,5.42
2019-04-04T02:13:20.128Z,5.46
2019-04-04T02:15:49.367Z,5.48
2019-04-04T02:18:18.639Z,5.48
2019-04-04T02:20:47.852Z,5.51
2019-04-04T02:23:17.067Z,5.54
2019-04-04T02:25:46.282Z,5.56
2019-04-04T02:28:15.507Z,5.63
2019-04-04T02:30:48.022Z,5.64
2019-04-04T02:33:14.009Z,5.67
2019-04-04T02:35:43.959Z,5.71
2019-04-04T02:38:12.536Z,5.74
2019-04-04T02:40:42.281Z,5.79
2019-04-04T02:43:10.952Z,5.82
2019-04-04T02:45:40.162Z,5.90
2019-04-04T02:48:09.418Z,5.89
2019-04-04T02:50:38.736Z,5.85
2019-04-04T02:53:08.035Z,5.85
2019-04-04T02:55:37.326Z,5.84
2019-04-04T02:58:06.605Z,5.84
2019-04-04T03:00:35.916Z,5.87
2019-04-04T03:03:08.028Z,5.89
2019-04-04T03:05:34.642Z,5.93
2019-04-04T03:08:04.584Z,5.87
2019-04-04T03:10:33.091Z,5.87
2019-04-04T03:13:02.320Z,5.87
2019-04-04T03:15:31.535Z,5.84
2019-04-04T03:18:04.071Z,5.84
2019-04-04T03:20:30.013Z,5.84
2019-04-04T03:23:00.580Z,5.83
2019-04-04T03:25:28.484Z,5.81
2019-04-04T03:27:58.258Z,5.81
2019-04-04T03:30:26.972Z,5.87
2019-04-04T03:32:56.230Z,5.88
2019-04-04T03:35:28.086Z,5.92
2019-04-04T03:37:54.766Z,5.96
2019-04-04T03:40:25.588Z,5.99
2019-04-04T03:42:53.349Z,6.02
2019-04-04T03:45:26.188Z,6.04
2019-04-04T03:47:51.802Z,6.02
2019-04-04T03:50:21.006Z,6.06
2019-04-04T03:52:50.287Z,6.06
2019-04-04T03:55:19.458Z,6.06
2019-04-04T03:57:48.724Z,6.07
2019-04-04T04:00:27.247Z,6.07
2019-04-04T04:02:56.511Z,6.07
2019-04-04T04:05:26.239Z,6.08
2019-04-04T04:07:55.452Z,6.12
2019-04-04T04:10:24.712Z,6.11
2019-04-04T04:12:53.941Z,6.11
2019-04-04T04:15:23.166Z,6.01
2019-04-04T04:17:52.396Z,6.04
2019-04-04T04:20:21.615Z,6.05
2019-04-04T04:22:51.665Z,6.05
2019-04-04T04:25:20.166Z,6.06
2019-04-04T04:27:50.382Z,6.02
2019-04-04T04:30:19.642Z,6.02
2019-04-04T04:32:48.897Z,6.09
2019-04-04T04:35:18.176Z,6.02
2019-04-04T04:37:52.310Z,6.00
2019-04-04T04:40:16.793Z,6.02
2019-04-04T04:42:46.029Z,6.03
2019-04-04T04:45:15.275Z,6.03
2019-04-04T04:47:44.479Z,6.06
2019-04-04T04:50:13.722Z,6.08
2019-04-04T04:52:46.494Z,6.05
2019-04-04T04:55:12.299Z,5.99
2019-04-04T04:57:41.396Z,5.92
2019-04-04T05:00:10.841Z,5.90
2019-04-04T05:02:40.203Z,5.90
2019-04-04T05:05:09.591Z,5.90
2019-04-04T05:07:39.140Z,5.91
2019-04-04T05:10:08.176Z,5.90
2019-04-04T05:12:37.469Z,5.91
2019-04-04T05:15:06.795Z,5.94
2019-04-04T05:17:36.165Z,5.99
2019-04-04T05:20:06.159Z,6.00
2019-04-04T05:22:35.440Z,5.99
2019-04-04T05:25:08.394Z,5.97
2019-04-04T05:27:36.848Z,5.98
2019-04-04T05:30:03.682Z,6.01
2019-04-04T05:32:32.959Z,6.05
2019-04-04T05:35:02.271Z,6.06
2019-04-04T05:37:31.515Z,6.09
2019-04-04T05:40:00.821Z,6.15
2019-04-04T05:42:32.779Z,6.23
2019-04-04T05:44:59.467Z,6.28
2019-04-04T05:47:28.848Z,6.47
2019-04-04T05:49:58.458Z,6.57
2019-04-04T05:52:27.839Z,6.66
2019-04-04T05:54:57.423Z,6.64
2019-04-04T05:57:26.629Z,6.64
2019-04-04T05:59:56.191Z,6.64
2019-04-04T06:02:25.053Z,6.52
2019-04-04T06:04:55.412Z,6.64
2019-04-04T06:07:23.556Z,6.73
2019-04-04T06:09:52.983Z,6.85
2019-04-04T06:12:24.722Z,6.88
2019-04-04T06:14:51.523Z,6.88
2019-04-04T06:17:20.765Z,6.91
2019-04-04T06:19:50.047Z,6.91
2019-04-04T06:22:21.127Z,6.87
2019-04-04T06:24:48.643Z,6.96
2019-04-04T06:27:17.910Z,6.99
2019-04-04T06:29:47.978Z,6.91
2019-04-04T06:32:16.523Z,6.98
2019-04-04T06:34:45.770Z,6.88
2019-04-04T06:37:15.078Z,6.85
2019-04-04T06:39:44.374Z,6.76
2019-04-04T06:42:13.656Z,6.76
2019-04-04T06:44:43.904Z,6.75
2019-04-04T06:47:12.125Z,6.76
2019-04-04T06:49:41.343Z,6.76
2019-04-04T06:52:10.575Z,6.81
2019-04-04T06:54:39.835Z,6.77
2019-04-04T06:57:09.065Z,6.80
2019-04-04T06:59:38.389Z,6.87
2019-04-04T07:02:07.626Z,6.98
2019-04-04T07:04:36.867Z,7.01
2019-04-04T07:07:06.092Z,7.03
2019-04-04T07:09:37.243Z,6.92
2019-04-04T07:12:06.500Z,7.17
2019-04-04T07:14:45.254Z,7.17
2019-04-04T07:17:03.404Z,7.30
2019-04-04T07:19:32.445Z,7.40
2019-04-04T07:22:01.667Z,7.33
2019-04-04T07:24:31.181Z,7.25
2019-04-04T07:27:00.192Z,7.25
2019-04-04T07:29:29.360Z,7.38
2019-04-04T07:31:58.559Z,7.47
2019-04-04T07:34:27.838Z,7.59
2019-04-04T07:36:57.107Z,7.59
2019-04-04T07:39:26.330Z,7.36
2019-04-04T07:41:55.560Z,7.34
2019-04-04T07:44:24.873Z,7.34
2019-04-04T07:46:54.077Z,7.35
2019-04-04T07:49:23.948Z,7.40
2019-04-04T07:51:52.555Z,7.42
2019-04-04T07:54:21.786Z,7.38
2019-04-04T07:56:51.021Z,7.41
2019-04-04T07:59:20.267Z,7.48
2019-04-04T08:01:51.292Z,7.58
2019-04-04T08:04:18.948Z,7.69
2019-04-04T08:06:48.178Z,7.80
2019-04-04T08:09:17.422Z,7.94
2019-04-04T08:11:46.636Z,8.12
2019-04-04T08:14:15.900Z,8.23
2019-04-04T08:16:45.146Z,8.39
2019-04-04T08:19:14.375Z,8.46
2019-04-04T08:21:43.608Z,8.37
2019-04-04T08:24:12.850Z,8.50
2019-04-04T08:26:42.071Z,8.80
2019-04-04T08:29:11.290Z,9.00
2019-04-04T08:31:40.572Z,8.86
2019-04-04T08:34:09.872Z,8.79
2019-04-04T08:36:39.083Z,8.77
2019-04-04T08:39:11.334Z,8.80
2019-04-04T08:41:40.708Z,8.80
2019-04-04T08:44:10.109Z,8.25
2019-04-04T08:46:39.370Z,8.36
2019-04-04T08:49:08.638Z,8.29
2019-04-04T08:51:37.890Z,8.23
2019-04-04T08:54:07.199Z,8.07
2019-04-04T08:56:36.444Z,8.11
2019-04-04T08:59:05.670Z,8.14
2019-04-04T09:01:34.948Z,8.35
2019-04-04T09:04:04.181Z,8.31
2019-04-04T09:06:33.415Z,8.31
2019-04-04T09:09:02.702Z,8.40
2019-04-04T09:11:31.974Z,8.47
2019-04-04T09:14:01.160Z,8.42
2019-04-04T09:16:30.470Z,8.53
2019-04-04T09:18:59.696Z,8.74
2019-04-04T09:21:28.964Z,8.97
2019-04-04T09:24:00.466Z,9.18
2019-04-04T09:26:27.467Z,9.27
2019-04-04T09:28:56.676Z,9.42
2019-04-04T09:31:25.948Z,9.50
2019-04-04T09:33:55.185Z,9.47
2019-04-04T09:36:24.422Z,9.52
2019-04-04T09:38:53.699Z,9.57
2019-04-04T09:41:22.927Z,9.74
2019-04-04T09:43:52.168Z,9.95
2019-04-04T09:46:21.432Z,10.22
2019-04-04T09:48:50.699Z,10.41
2019-04-04T09:51:19.998Z,10.29
2019-04-04T09:53:53.148Z,10.09
2019-04-04T09:56:18.502Z,10.08
2019-04-04T09:58:47.728Z,10.01
2019-04-04T10:01:16.961Z,9.89
2019-04-04T10:03:46.224Z,9.69
2019-04-04T10:06:15.474Z,9.57
2019-04-04T10:08:44.717Z,9.77
2019-04-04T10:11:14.025Z,9.90
2019-04-04T10:13:43.312Z,9.98
2019-04-04T10:16:12.551Z,10.07
2019-04-04T10:18:41.771Z,10.01
2019-04-04T10:21:12.441Z,9.89
2019-04-04T10:23:40.357Z,10.00
2019-04-04T10:26:09.656Z,10.07
2019-04-04T10:28:38.935Z,9.97
2019-04-04T10:31:08.137Z,9.94
2019-04-04T10:33:37.363Z,9.96
2019-04-04T10:36:06.585Z,9.81
2019-04-04T10:38:35.849Z,9.74
2019-04-04T10:41:05.103Z,9.78
2019-04-04T10:43:34.325Z,9.82
2019-04-04T10:46:03.520Z,9.61
2019-04-04T10:48:32.738Z,9.56
2019-04-04T10:51:01.952Z,9.63
2019-04-04T10:53:31.195Z,9.82
2019-04-04T10:56:00.414Z,10.08
2019-04-04T10:58:29.693Z,10.21
2019-04-04T11:00:58.914Z,10.19
2019-04-04T11:03:28.212Z,10.46
2019-04-04T11:05:57.437Z,10.74
2019-04-04T11:08:26.682Z,10.98
2019-04-04T11:10:58.850Z,11.13
2019-04-04T11:13:33.341Z,11.12
2019-04-04T11:15:54.534Z,10.86
2019-04-04T11:18:23.788Z,10.73
2019-04-04T11:20:52.996Z,10.78
2019-04-04T11:23:22.259Z,10.84
2019-04-04T11:25:51.512Z,10.96
2019-04-04T11:28:20.755Z,11.01
2019-04-04T11:30:49.988Z,11.28
2019-04-04T11:33:19.293Z,11.34
2019-04-04T11:35:48.555Z,11.19
2019-04-04T11:38:17.809Z,11.08
2019-04-04T11:40:47.024Z,10.93
2019-04-04T11:43:16.264Z,10.74
2019-04-04T11:45:45.512Z,10.61
2019-04-04T11:48:14.746Z,10.62
2019-04-04T11:50:43.959Z,10.54
2019-04-04T11:53:13.313Z,10.61
2019-04-04T11:55:42.577Z,10.72
2019-04-04T11:58:11.800Z,10.84
2019-04-04T12:00:42.368Z,10.86
2019-04-04T12:03:11.593Z,10.79
2019-04-04T12:05:40.834Z,10.67
2019-04-04T12:08:10.067Z,10.65
2019-04-04T12:10:39.348Z,10.62
2019-04-04T12:13:08.628Z,10.61
2019-04-04T12:15:37.904Z,10.51
2019-04-04T12:18:07.140Z,10.46
2019-04-04T12:20:36.383Z,10.41
2019-04-04T12:23:05.628Z,10.30
2019-04-04T12:25:34.884Z,10.41
2019-04-04T12:28:04.106Z,10.48
2019-04-04T12:30:33.407Z,10.59
2019-04-04T12:33:02.645Z,10.67
2019-04-04T12:35:31.888Z,10.68
2019-04-04T12:38:01.106Z,10.54
2019-04-04T12:40:30.322Z,10.57
2019-04-04T12:42:59.608Z,10.50
2019-04-04T12:45:28.873Z,10.39
2019-04-04T12:47:58.100Z,10.26
2019-04-04T12:50:27.334Z,10.08
2019-04-04T12:52:56.622Z,10.02
2019-04-04T12:55:25.860Z,9.87
2019-04-04T12:57:55.109Z,9.74
2019-04-04T13:00:24.352Z,9.66
2019-04-04T13:02:53.624Z,9.58
2019-04-04T13:05:22.866Z,9.49
2019-04-04T13:07:52.143Z,9.46
2019-04-04T13:10:32.535Z,9.36
2019-04-04T13:12:50.666Z,9.43
2019-04-04T13:15:19.947Z,9.50
2019-04-04T13:17:49.160Z,9.58
2019-04-04T13:20:18.364Z,9.65
2019-04-04T13:22:47.630Z,9.67
2019-04-04T13:25:16.942Z,9.72
2019-04-04T13:27:46.232Z,9.75
2019-04-04T13:30:15.458Z,9.76
2019-04-04T13:32:44.681Z,9.88
2019-04-04T13:35:14.022Z,9.89
2019-04-04T13:37:43.261Z,10.06
2019-04-04T13:40:12.534Z,10.16
2019-04-04T13:42:41.782Z,10.21
2019-04-04T13:45:11.573Z,10.29
2019-04-04T13:47:40.803Z,10.30
2019-04-04T13:50:12.459Z,10.07
2019-04-04T13:52:39.338Z,10.03
2019-04-04T13:55:08.566Z,10.00
2019-04-04T13:57:39.242Z,9.90
2019-04-04T14:00:07.122Z,9.80
2019-04-04T14:02:36.449Z,9.78
2019-04-04T14:05:10.183Z,9.73
2019-04-04T14:07:35.693Z,9.73
2019-04-04T14:10:05.582Z,9.72
2019-04-04T14:12:34.999Z,9.69
2019-04-04T14:15:04.650Z,9.66
2019-04-04T14:17:33.986Z,9.66
2019-04-04T14:20:03.199Z,9.55
2019-04-04T14:22:32.464Z,9.57
2019-04-04T14:25:01.775Z,9.56
2019-04-04T14:27:30.982Z,9.51
2019-04-04T14:30:00.185Z,9.48
2019-04-04T14:32:29.432Z,9.44
2019-04-04T14:34:58.647Z,9.42
2019-04-04T14:37:27.882Z,9.43
2019-04-04T14:39:57.280Z,9.41
2019-04-04T14:42:26.517Z,9.40
2019-04-04T14:44:55.784Z,9.32
2019-04-04T14:47:25.008Z,9.30
2019-04-04T14:49:54.227Z,9.29
2019-04-04T14:52:24.292Z,9.32
2019-04-04T14:54:52.654Z,9.25
2019-04-04T14:57:21.930Z,9.28
2019-04-04T14:59:51.171Z,9.29
2019-04-04T15:02:20.572Z,9.28
2019-04-04T15:04:49.827Z,9.25
2019-04-04T15:07:19.033Z,9.22
2019-04-04T15:09:48.378Z,9.20
2019-04-04T15:12:17.602Z,9.24
2019-04-04T15:14:46.833Z,9.32
2019-04-04T15:17:16.144Z,9.39
2019-04-04T15:19:45.770Z,9.47
2019-04-04T15:22:15.062Z,9.49
2019-04-04T15:24:44.312Z,9.40
2019-04-04T15:27:12.868Z,9.39
2019-04-04T15:29:42.172Z,9.34
2019-04-04T15:32:11.416Z,9.38
2019-04-04T15:34:40.684Z,9.76
2019-04-04T15:37:09.883Z,9.79
2019-04-04T15:39:39.134Z,9.81
2019-04-04T15:42:08.470Z,9.74
2019-04-04T15:44:37.769Z,9.68
2019-04-04T15:47:07.034Z,9.62
2019-04-04T15:49:36.387Z,9.57
2019-04-04T15:52:05.686Z,9.57
2019-04-04T15:54:34.932Z,9.60
2019-04-04T15:57:04.160Z,9.58
2019-04-04T15:59:33.377Z,9.58
2019-04-04T16:02:02.626Z,9.53
2019-04-04T16:04:31.969Z,9.57
2019-04-04T16:07:02.209Z,9.55
2019-04-04T16:09:31.498Z,9.53
2019-04-04T16:12:00.710Z,9.56
2019-04-04T16:14:29.942Z,9.57
2019-04-04T16:16:59.247Z,9.61
2019-04-04T16:19:28.452Z,9.59
2019-04-04T16:21:57.748Z,9.61
2019-04-04T16:24:26.984Z,9.59
2019-04-04T16:26:56.333Z,9.57
2019-04-04T16:29:25.543Z,9.58
2019-04-04T16:31:54.840Z,9.63
2019-04-04T16:34:24.103Z,9.63
2019-04-04T16:36:53.411Z,9.62
2019-04-04T16:39:22.674Z,8.52
2019-04-04T16:42:01.485Z,9.45
2019-04-04T16:44:21.180Z,9.43
2019-04-04T16:46:50.518Z,9.46
2019-04-04T16:49:19.730Z,9.46
2019-04-04T16:51:48.988Z,9.44
2019-04-04T16:54:18.415Z,9.36
2019-04-04T16:56:47.688Z,9.34
2019-04-04T16:59:16.994Z,9.20
2019-04-04T17:01:46.237Z,9.28
2019-04-04T17:04:15.464Z,9.26
2019-04-04T17:06:44.741Z,9.15
2019-04-04T17:09:13.970Z,9.12
2019-04-04T17:11:43.238Z,9.01
2019-04-04T17:14:12.406Z,8.99
2019-04-04T17:16:41.665Z,9.03
2019-04-04T17:19:10.902Z,8.99
2019-04-04T17:21:40.414Z,9.00
2019-04-04T17:24:09.861Z,8.89
2019-04-04T17:26:39.371Z,8.91
2019-04-04T17:29:08.588Z,8.91
2019-04-04T17:31:37.888Z,8.78
2019-04-04T17:34:07.615Z,8.76
2019-04-04T17:36:36.524Z,8.76
2019-04-04T17:39:07.418Z,8.76
2019-04-04T17:41:36.991Z,8.73
2019-04-04T17:44:06.585Z,8.72
2019-04-04T17:46:35.502Z,8.66
2019-04-04T17:49:04.444Z,8.56
2019-04-04T17:51:33.685Z,8.56
2019-04-04T17:54:03.721Z,8.52
2019-04-04T17:56:32.862Z,8.49
2019-04-04T17:59:01.769Z,8.49
2019-04-04T18:01:34.202Z,8.46
2019-04-04T18:04:00.730Z,8.42
2019-04-04T18:06:29.994Z,8.44
2019-04-04T18:08:59.309Z,8.39
2019-04-04T18:11:28.576Z,8.39
2019-04-04T18:13:57.859Z,8.37
2019-04-04T18:16:27.152Z,8.37
2019-04-04T18:18:56.586Z,8.33
2019-04-04T18:21:25.812Z,8.33
2019-04-04T18:23:55.186Z,8.33
2019-04-04T18:26:24.428Z,8.33
2019-04-04T18:28:53.661Z,8.33
2019-04-04T18:31:22.950Z,8.33
2019-04-04T18:33:52.631Z,8.28
2019-04-04T18:36:22.100Z,8.28
2019-04-04T18:38:50.781Z,8.38
2019-04-04T18:41:20.063Z,8.38
2019-04-04T18:43:49.372Z,8.37
2019-04-04T18:46:18.618Z,8.37
2019-04-04T18:48:47.854Z,8.41
2019-04-04T18:51:17.220Z,8.40
2019-04-04T18:53:46.456Z,8.41
2019-04-04T18:56:15.826Z,8.38
2019-04-04T18:58:45.062Z,8.33
2019-04-04T19:01:14.783Z,8.38
2019-04-04T19:03:44.042Z,8.37
2019-04-04T19:06:13.294Z,8.28
2019-04-04T19:08:42.558Z,8.30
2019-04-04T19:11:11.790Z,8.30
2019-04-04T19:13:44.438Z,8.33
2019-04-04T19:16:10.360Z,8.29
2019-04-04T19:18:39.580Z,8.25
2019-04-04T19:21:08.813Z,8.22
2019-04-04T19:23:48.623Z,8.23
2019-04-04T19:26:07.359Z,8.23
2019-04-04T19:28:36.587Z,8.28
2019-04-04T19:31:05.815Z,8.26
2019-04-04T19:33:35.090Z,8.23
2019-04-04T19:36:04.346Z,8.20
2019-04-04T19:38:34.680Z,8.14
2019-04-04T19:41:03.947Z,8.11
2019-04-04T19:43:33.237Z,8.12
2019-04-04T19:46:02.486Z,8.07
2019-04-04T19:48:31.716Z,8.08
2019-04-04T19:51:01.001Z,8.09
2019-04-04T19:53:30.303Z,8.06
2019-04-04T19:55:59.523Z,8.02
2019-04-04T19:58:28.743Z,8.00
2019-04-04T20:00:57.970Z,7.94
2019-04-04T20:03:27.234Z,7.94
2019-04-04T20:05:56.472Z,8.00
2019-04-04T20:08:25.797Z,7.94
2019-04-04T20:10:55.261Z,7.94
2019-04-04T20:13:30.792Z,7.91
2019-04-04T20:15:53.918Z,7.94
2019-04-04T20:18:23.142Z,7.90
2019-04-04T20:20:52.651Z,7.90
2019-04-04T20:23:21.868Z,7.91
2019-04-04T20:25:51.107Z,7.87
2019-04-04T20:28:20.321Z,7.80
2019-04-04T20:30:49.569Z,7.84
2019-04-04T20:33:18.794Z,7.84
2019-04-04T20:35:47.986Z,7.80
2019-04-04T20:38:17.239Z,7.80
2019-04-04T20:40:46.546Z,7.80
2019-04-04T20:43:15.834Z,7.79
2019-04-04T20:45:45.147Z,7.85
2019-04-04T20:48:14.434Z,7.86
2019-04-04T20:50:43.717Z,7.79
2019-04-04T20:53:12.932Z,7.77
2019-04-04T20:55:42.161Z,7.70
2019-04-04T20:58:11.492Z,7.70
2019-04-04T21:00:40.846Z,7.74
2019-04-04T21:03:10.246Z,7.78
2019-04-04T21:05:39.502Z,7.76
2019-04-04T21:08:08.954Z,7.71
2019-04-04T21:10:38.341Z,7.72
2019-04-04T21:13:07.650Z,7.69
2019-04-04T21:15:36.971Z,7.69
2019-04-04T21:18:06.314Z,7.68
2019-04-04T21:20:35.680Z,7.66
2019-04-04T21:23:04.889Z,7.65
2019-04-04T21:25:34.124Z,7.63
2019-04-04T21:28:03.368Z,7.59
2019-04-04T21:30:32.652Z,7.53
2019-04-04T21:33:01.981Z,7.49
2019-04-04T21:35:31.190Z,7.48
2019-04-04T21:38:00.432Z,7.50
2019-04-04T21:40:29.746Z,7.46
2019-04-04T21:42:59.010Z,7.51
2019-04-04T21:45:28.354Z,7.51
2019-04-04T21:47:57.574Z,7.45
2019-04-04T21:50:26.816Z,7.46
2019-04-04T21:52:56.090Z,7.46
2019-04-04T21:55:25.388Z,7.44
2019-04-04T21:57:54.643Z,7.43
2019-04-04T22:00:24.222Z,7.40
2019-04-04T22:02:53.557Z,7.43
2019-04-04T22:05:22.832Z,7.45
2019-04-04T22:07:52.142Z,7.36
2019-04-04T22:10:21.491Z,7.36
2019-04-04T22:12:50.798Z,7.39
2019-04-04T22:15:20.131Z,7.38
2019-04-04T22:17:49.424Z,7.38
2019-04-04T22:20:18.791Z,7.36
2019-04-04T22:22:48.083Z,7.38
2019-04-04T22:25:17.393Z,7.42
2019-04-04T22:27:46.684Z,7.41
2019-04-04T22:30:15.949Z,7.35
2019-04-04T22:32:45.220Z,7.35
2019-04-04T22:35:14.500Z,7.33
2019-04-04T22:37:43.841Z,7.33
2019-04-04T22:40:13.115Z,7.30
2019-04-04T22:42:42.399Z,7.30
2019-04-04T22:45:11.687Z,7.31
2019-04-04T22:47:40.950Z,7.27
2019-04-04T22:50:10.194Z,7.28
2019-04-04T22:52:39.519Z,7.25
2019-04-04T22:55:08.820Z,7.25
2019-04-04T22:57:38.095Z,7.31
2019-04-04T23:00:07.732Z,7.26
2019-04-04T23:02:37.069Z,7.24
2019-04-04T23:05:06.339Z,7.26
2019-04-04T23:07:35.578Z,7.30
2019-04-04T23:10:05.748Z,7.30
2019-04-04T23:12:35.046Z,7.29
2019-04-04T23:15:04.552Z,7.28
2019-04-04T23:17:33.800Z,7.27
2019-04-04T23:20:03.087Z,7.26
2019-04-04T23:22:32.455Z,7.27
2019-04-04T23:25:01.708Z,7.21
2019-04-04T23:27:30.978Z,7.19
2019-04-04T23:30:00.232Z,7.17
2019-04-04T23:32:29.560Z,7.17
2019-04-04T23:34:58.836Z,7.17
2019-04-04T23:37:28.147Z,7.10
2019-04-04T23:39:57.422Z,7.09
2019-04-04T23:42:26.750Z,7.12
2019-04-04T23:45:01.182Z,7.08
2019-04-04T23:47:25.351Z,7.06
2019-04-04T23:49:54.605Z,7.04
2019-04-04T23:52:23.948Z,7.05
2019-04-04T23:54:53.214Z,7.01
2019-04-04T23:57:22.478Z,7.02
2019-04-04T23:59:51.740Z,7.01
